createdAt,value
2023-02-05T00:04:15.432Z,21.33
2023-02-05T00:09:18.138Z,22.15
2023-02-05T00:14:19.814Z,21.17
2023-02-05T00:19:21.456Z,18.80
2023-02-05T00:24:23.206Z,22.17
2023-02-05T00:29:24.807Z,20.05
2023-02-05T00:34:26.415Z,18.30
2023-02-05T00:39:28.124Z,16.38
2023-02-05T00:44:29.909Z,14.95
2023-02-05T00:49:31.562Z,15.27
2023-02-05T00:54:33.239Z,14.20
2023-02-05T00:59:34.921Z,14.43
2023-02-05T01:04:36.532Z,15.45
2023-02-05T01:09:38.321Z,12.55
2023-02-05T01:14:41.396Z,14.95
2023-02-05T01:19:43.037Z,10.10
2023-02-05T01:24:44.778Z,9.63
2023-02-05T01:29:46.600Z,9.30
2023-02-05T01:34:49.007Z,6.72
2023-02-05T01:39:50.796Z,6.80
2023-02-05T01:45:21.661Z,5.28
2023-02-05T01:50:32.292Z,7.63
2023-02-05T01:55:39.624Z,7.63
2023-02-05T02:00:41.661Z,5.05
2023-02-05T02:05:43.436Z,5.28
2023-02-05T02:10:48.616Z,4.93
2023-02-05T02:15:50.613Z,7.75
2023-02-05T02:21:38.977Z,4.68
2023-02-05T02:27:05.442Z,5.47
2023-02-05T02:32:24.363Z,4.95
2023-02-05T02:37:34.434Z,3.28
2023-02-05T02:42:46.326Z,5.10
2023-02-05T02:47:53.284Z,6.53
2023-02-05T02:52:56.372Z,8.23
2023-02-05T02:57:59.570Z,10.38
2023-02-05T03:03:05.483Z,7.32
2023-02-05T03:08:13.862Z,10.13
2023-02-05T03:13:15.665Z,9.57
2023-02-05T03:18:24.000Z,8.02
2023-02-05T03:23:29.755Z,5.82
2023-02-05T03:28:32.168Z,10.70
2023-02-05T03:33:57.859Z,7.00
2023-02-05T03:39:16.339Z,6.40
2023-02-05T03:44:50.758Z,6.40
2023-02-05T03:50:07.175Z,3.70
2023-02-05T03:55:17.451Z,3.90
2023-02-05T04:00:20.346Z,5.40
2023-02-05T04:05:26.835Z,5.72
2023-02-05T04:10:31.859Z,6.47
2023-02-05T04:15:36.223Z,7.43
2023-02-05T04:20:41.772Z,6.00
2023-02-05T04:25:44.417Z,9.52
2023-02-05T04:30:49.823Z,7.63
2023-02-05T04:35:51.609Z,7.35
2023-02-05T04:40:53.558Z,10.52
2023-02-05T04:45:55.251Z,10.55
2023-02-05T04:50:56.887Z,7.68
2023-02-05T04:56:10.110Z,6.93
2023-02-05T05:01:20.622Z,8.50
2023-02-05T05:06:22.424Z,3.63
2023-02-05T05:11:24.054Z,7.53
2023-02-05T05:16:25.800Z,8.88
2023-02-05T05:21:27.380Z,5.10
2023-02-05T05:26:29.007Z,7.53
2023-02-05T05:31:30.633Z,11.82
2023-02-05T05:36:32.376Z,8.90
2023-02-05T05:41:53.000Z,10.73
2023-02-05T05:46:54.771Z,10.35
2023-02-05T05:51:56.414Z,15.63
2023-02-05T05:56:57.996Z,6.35
2023-02-05T06:02:01.392Z,12.02
2023-02-05T06:07:03.004Z,14.20
2023-02-05T06:12:04.765Z,12.02
2023-02-05T06:17:07.469Z,6.00
2023-02-05T06:22:09.308Z,4.20
2023-02-05T06:27:10.975Z,8.13
2023-02-05T06:32:12.611Z,9.27
2023-02-05T06:37:14.619Z,11.32
2023-02-05T06:42:16.230Z,11.02
2023-02-05T06:47:17.961Z,11.38
2023-02-05T06:52:19.592Z,14.32
2023-02-05T06:57:21.263Z,21.55
2023-02-05T07:02:22.907Z,11.48
2023-02-05T07:07:24.508Z,14.23
2023-02-05T07:12:26.387Z,9.90
2023-02-05T07:17:27.973Z,13.52
2023-02-05T07:22:29.635Z,9.70
2023-02-05T07:27:31.335Z,15.48
2023-02-05T07:32:32.922Z,15.48
2023-02-05T07:37:37.351Z,21.98
2023-02-05T07:42:38.968Z,16.15
2023-02-05T07:47:42.533Z,12.02
2023-02-05T07:52:44.434Z,12.95
2023-02-05T07:57:47.183Z,15.52
2023-02-05T08:02:49.589Z,15.52
2023-02-05T08:07:51.463Z,16.40
2023-02-05T08:12:53.178Z,9.85
2023-02-05T08:17:55.397Z,10.93
2023-02-05T08:22:57.177Z,9.95
2023-02-05T08:27:58.960Z,17.05
2023-02-05T08:33:00.753Z,8.50
2023-02-05T08:38:03.780Z,12.60
2023-02-05T08:43:05.550Z,12.95
2023-02-05T08:48:07.873Z,17.35
2023-02-05T08:53:09.789Z,17.05
2023-02-05T08:58:11.636Z,19.23
2023-02-05T09:03:13.384Z,16.50
2023-02-05T09:08:15.041Z,14.02
2023-02-05T09:13:16.787Z,21.20
2023-02-05T09:18:18.580Z,13.43
2023-02-05T09:23:20.601Z,12.65
2023-02-05T09:28:22.378Z,15.73
2023-02-05T09:33:24.168Z,18.25
2023-02-05T09:38:25.793Z,14.95
2023-02-05T09:43:52.351Z,21.20
2023-02-05T09:49:42.286Z,17.67
2023-02-05T09:54:49.728Z,15.18
2023-02-05T09:59:51.456Z,12.68
2023-02-05T10:04:54.912Z,10.85
2023-02-05T10:10:16.106Z,9.77
2023-02-05T10:15:53.280Z,7.15
2023-02-05T10:21:13.351Z,6.70
2023-02-05T10:26:18.372Z,13.10
2023-02-05T10:31:42.243Z,12.27
2023-02-05T10:36:49.267Z,6.90
2023-02-05T10:42:06.841Z,19.20
2023-02-05T10:47:24.909Z,11.38
2023-02-05T10:52:26.922Z,13.95
2023-02-05T10:57:34.051Z,12.13
2023-02-05T11:02:41.498Z,15.57
2023-02-05T11:07:49.613Z,5.95
2023-02-05T11:12:55.761Z,14.68
2023-02-05T11:18:04.469Z,10.05
2023-02-05T11:23:17.966Z,19.45
2023-02-05T11:28:27.820Z,16.55
2023-02-05T11:33:31.439Z,5.88
2023-02-05T11:38:42.195Z,8.63
2023-02-05T11:43:50.972Z,6.00
2023-02-05T11:49:00.853Z,5.95
2023-02-05T11:54:07.618Z,14.05
2023-02-05T11:59:22.774Z,11.98
2023-02-05T12:04:26.370Z,12.65
2023-02-05T12:09:28.092Z,10.27
2023-02-05T12:15:00.939Z,8.25
2023-02-05T12:20:16.725Z,12.50
2023-02-05T12:25:51.668Z,17.63
2023-02-05T12:30:58.054Z,15.50
2023-02-05T12:36:27.090Z,8.48
2023-02-05T12:41:53.190Z,20.77
2023-02-05T12:47:19.705Z,10.90
2023-02-05T12:53:13.915Z,13.73
2023-02-05T12:58:19.135Z,8.60
2023-02-05T13:03:38.833Z,11.10
2023-02-05T13:09:05.511Z,15.43
2023-02-05T13:14:19.998Z,17.67
2023-02-05T13:19:30.930Z,23.15
2023-02-05T13:25:06.808Z,10.85
2023-02-05T13:30:16.884Z,14.35
2023-02-05T13:35:22.034Z,21.00
2023-02-05T13:40:47.325Z,14.63
2023-02-05T13:46:38.976Z,18.33
2023-02-05T13:51:55.821Z,16.40
2023-02-05T13:57:31.536Z,17.98
2023-02-05T14:02:43.497Z,14.95
2023-02-05T14:07:50.874Z,16.77
2023-02-05T14:12:52.978Z,14.82
2023-02-05T14:17:55.902Z,13.80
2023-02-05T14:23:01.078Z,14.43
2023-02-05T14:28:08.944Z,15.18
2023-02-05T14:33:10.682Z,17.17
2023-02-05T14:38:31.208Z,24.77
2023-02-05T14:43:36.422Z,22.50
2023-02-05T14:48:43.185Z,6.00
2023-02-05T14:53:55.877Z,10.77
2023-02-05T14:59:05.217Z,19.65
2023-02-05T15:04:20.446Z,25.42
2023-02-05T15:09:45.993Z,16.80
2023-02-05T15:14:47.546Z,17.20
2023-02-05T15:20:05.932Z,13.30
2023-02-05T15:25:28.167Z,10.63
2023-02-05T15:30:45.989Z,16.08
2023-02-05T15:35:49.886Z,14.18
2023-02-05T15:40:52.627Z,11.05
2023-02-05T15:46:14.635Z,13.88
2023-02-05T15:51:28.744Z,13.30
2023-02-05T15:56:41.399Z,23.02
2023-02-05T16:01:49.494Z,11.63
2023-02-05T16:06:51.130Z,19.67
2023-02-05T16:11:53.193Z,17.17
2023-02-05T16:17:25.234Z,19.42
2023-02-05T16:22:42.681Z,19.63
2023-02-05T16:27:49.457Z,15.52
2023-02-05T16:32:55.821Z,22.08
2023-02-05T16:37:58.977Z,24.27
2023-02-05T16:43:16.100Z,19.33
2023-02-05T16:48:23.405Z,20.65
2023-02-05T16:53:31.615Z,23.67
2023-02-05T16:58:38.372Z,13.43
2023-02-05T17:03:41.553Z,21.48
2023-02-05T17:08:52.940Z,15.95
2023-02-05T17:14:12.930Z,22.08
2023-02-05T17:19:33.228Z,18.23
2023-02-05T17:29:37.780Z,23.30
2023-02-05T17:34:39.683Z,25.00
2023-02-05T17:39:41.671Z,24.65
2023-02-05T17:44:43.337Z,14.27
2023-02-05T17:49:45.052Z,26.27
2023-02-05T17:54:47.508Z,24.25
2023-02-05T17:59:50.295Z,21.67
2023-02-05T18:04:52.633Z,24.73
2023-02-05T18:09:54.401Z,17.48
2023-02-05T18:14:56.376Z,23.95
2023-02-05T18:19:58.042Z,24.15
2023-02-05T18:24:59.759Z,26.52
2023-02-05T18:30:01.768Z,18.90
2023-02-05T18:35:14.988Z,22.30
2023-02-05T18:40:16.903Z,18.83
2023-02-05T18:45:19.445Z,19.88
2023-02-05T18:50:21.979Z,21.77
2023-02-05T18:55:23.767Z,24.77
2023-02-05T19:00:25.533Z,28.88
2023-02-05T19:05:27.748Z,24.70
2023-02-05T19:10:29.566Z,27.20
2023-02-05T19:15:31.786Z,21.52
2023-02-05T19:20:34.427Z,20.48
2023-02-05T19:25:37.332Z,23.23
2023-02-05T19:30:39.242Z,29.58
2023-02-05T19:35:41.334Z,26.15
2023-02-05T19:40:43.278Z,22.75
2023-02-05T19:45:45.469Z,21.90
2023-02-05T19:50:47.187Z,23.52
2023-02-05T19:55:49.117Z,28.85
2023-02-05T20:00:51.628Z,17.48
2023-02-05T20:05:53.510Z,24.50
2023-02-05T20:11:00.002Z,25.92
2023-02-05T20:16:07.625Z,27.83
2023-02-05T20:21:12.247Z,30.48
2023-02-05T20:26:18.926Z,23.17
2023-02-05T20:31:33.517Z,23.37
2023-02-05T20:36:37.729Z,20.42
2023-02-05T20:41:39.437Z,18.55
2023-02-05T20:46:41.450Z,20.55
2023-02-05T20:51:43.783Z,30.60
2023-02-05T20:56:45.433Z,23.60
2023-02-05T21:01:47.244Z,20.83
2023-02-05T21:06:49.422Z,23.00
2023-02-05T21:11:55.480Z,29.30
2023-02-05T21:16:57.379Z,22.17
2023-02-05T21:21:59.362Z,23.55
2023-02-05T21:27:01.233Z,21.98
2023-02-05T21:32:02.970Z,23.60
2023-02-05T21:37:04.638Z,23.85
2023-02-05T21:42:06.346Z,20.92
2023-02-05T21:47:08.020Z,20.10
2023-02-05T21:52:09.856Z,35.63
2023-02-05T21:57:11.533Z,25.13
2023-02-05T22:02:13.277Z,18.40
2023-02-05T22:07:14.900Z,24.95
2023-02-05T22:12:16.489Z,20.15
2023-02-05T22:17:18.237Z,22.98
2023-02-05T22:22:19.899Z,19.05
2023-02-05T22:27:21.723Z,18.52
2023-02-05T22:32:23.554Z,18.40
2023-02-05T22:37:25.219Z,26.63
2023-02-05T22:42:27.010Z,21.30
2023-02-05T22:47:29.281Z,17.02
2023-02-05T22:52:30.879Z,19.13
2023-02-05T22:57:32.551Z,19.15
2023-02-05T23:02:34.581Z,19.15
2023-02-05T23:07:36.210Z,16.38
2023-02-05T23:12:37.841Z,20.23
2023-02-05T23:17:39.542Z,17.33
2023-02-05T23:22:41.260Z,16.58
2023-02-05T23:27:43.003Z,16.13
2023-02-05T23:32:44.762Z,19.85
2023-02-05T23:37:46.409Z,18.10
2023-02-05T23:42:48.001Z,15.43
2023-02-05T23:47:49.583Z,19.08
2023-02-05T23:52:51.285Z,18.90
2023-02-05T23:57:53.480Z,15.13
